createdAt,value
2022-10-17T00:06:37.175Z,101569.44
2022-10-17T00:16:58.541Z,101571.59
2022-10-17T00:27:19.952Z,101589.50
2022-10-17T00:37:41.296Z,101574.72
2022-10-17T00:48:08.525Z,101563.34
2022-10-17T00:58:30.102Z,101543.75
2022-10-17T01:08:51.576Z,101532.13
2022-10-17T01:19:28.015Z,101512.69
2022-10-17T01:29:59.820Z,101510.47
2022-10-17T01:40:39.633Z,101504.84
2022-10-17T01:51:14.589Z,101472.63
2022-10-17T02:01:37.494Z,101465.25
2022-10-17T02:12:05.087Z,101454.13
2022-10-17T02:22:44.922Z,101425.47
2022-10-17T02:33:12.497Z,101406.91
2022-10-17T02:43:35.054Z,101395.25
2022-10-17T02:53:56.460Z,101389.50
2022-10-17T03:04:18.276Z,101376.69
2022-10-17T03:14:39.620Z,101369.88
2022-10-17T03:25:00.964Z,101379.97
2022-10-17T03:35:22.377Z,101375.81
2022-10-17T03:45:43.725Z,101379.97
2022-10-17T03:56:24.465Z,101379.06
2022-10-17T04:06:45.810Z,101363.75
2022-10-17T04:17:07.149Z,101367.47
2022-10-17T04:27:28.500Z,101354.69
2022-10-17T04:37:49.869Z,101357.22
2022-10-17T04:48:11.271Z,101360.97
2022-10-17T04:58:32.618Z,101357.41
2022-10-17T05:08:53.982Z,101338.38
2022-10-17T05:19:15.581Z,101331.66
2022-10-17T05:29:36.967Z,101323.63
2022-10-17T05:39:58.310Z,101310.13
2022-10-17T05:50:21.981Z,101301.97
2022-10-17T06:00:43.405Z,101296.94
2022-10-17T06:11:07.673Z,101298.69
2022-10-17T06:21:34.719Z,101323.09
2022-10-17T06:31:56.075Z,101332.56
2022-10-17T06:42:17.412Z,101348.47
2022-10-17T06:52:39.439Z,101350.28
2022-10-17T07:03:00.773Z,101367.97
2022-10-17T07:13:22.388Z,101372.19
2022-10-17T07:23:43.782Z,101369.13
2022-10-17T07:34:05.129Z,101357.47
2022-10-17T07:44:26.535Z,101340.88
2022-10-17T07:54:47.981Z,101354.22
2022-10-17T08:05:09.476Z,101358.94
2022-10-17T08:15:32.151Z,101355.56
2022-10-17T08:25:53.642Z,101350.97
2022-10-17T08:36:16.565Z,101352.41
2022-10-17T08:46:39.288Z,101344.56
2022-10-17T08:57:00.630Z,101346.94
2022-10-17T09:07:28.541Z,101341.06
2022-10-17T09:18:11.269Z,101368.97
2022-10-17T09:28:34.808Z,101373.19
2022-10-17T09:39:05.394Z,101388.06
2022-10-17T09:49:37.805Z,101387.69
2022-10-17T10:00:00.629Z,101398.19
2022-10-17T10:10:27.935Z,101419.31
2022-10-17T10:21:02.321Z,101461.75
2022-10-17T10:31:37.710Z,101459.78
2022-10-17T10:42:00.090Z,101455.97
2022-10-17T10:52:30.210Z,101478.91
2022-10-17T11:02:54.777Z,101505.78
2022-10-17T11:13:24.823Z,101546.00
2022-10-17T11:23:49.219Z,101531.28
2022-10-17T11:34:19.452Z,101530.44
2022-10-17T11:44:41.719Z,101607.84
2022-10-17T11:55:22.041Z,101607.53
2022-10-17T12:05:49.053Z,101532.88
2022-10-17T12:16:17.601Z,101478.00
2022-10-17T12:26:39.134Z,101501.56
2022-10-17T12:37:00.492Z,101509.75
2022-10-17T12:47:29.425Z,101560.75
2022-10-17T12:58:03.763Z,101595.66
2022-10-17T13:08:28.184Z,101604.38
2022-10-17T13:18:52.559Z,101613.09
2022-10-17T13:29:14.818Z,101607.09
2022-10-17T13:39:54.320Z,101625.50
2022-10-17T13:50:43.060Z,101633.09
2022-10-17T14:01:04.212Z,101650.34
2022-10-17T14:11:29.136Z,101658.78
2022-10-17T14:21:53.337Z,101673.97
2022-10-17T14:32:15.201Z,101674.91
2022-10-17T14:42:39.884Z,101694.59
2022-10-17T14:53:04.432Z,101688.59
2022-10-17T15:03:26.945Z,101702.97
2022-10-17T15:13:48.347Z,101703.16
2022-10-17T15:24:09.825Z,101710.31
2022-10-17T15:34:31.209Z,101715.34
2022-10-17T15:44:52.665Z,101721.06
2022-10-17T15:55:14.192Z,101727.59
2022-10-17T16:05:35.629Z,101742.13
2022-10-17T16:15:56.974Z,101764.84
2022-10-17T16:26:18.490Z,101798.00
2022-10-17T16:36:40.263Z,101809.03
2022-10-17T16:47:01.637Z,101808.38
2022-10-17T16:57:23.064Z,101809.31
2022-10-17T17:07:45.226Z,101787.03
2022-10-17T17:18:06.987Z,101838.28
2022-10-17T17:28:29.124Z,101842.81
2022-10-17T17:38:51.554Z,101848.28
2022-10-17T17:49:12.929Z,101876.28
2022-10-17T17:59:34.392Z,101871.09
2022-10-17T18:09:56.967Z,101873.34
2022-10-17T18:20:18.497Z,101881.25
2022-10-17T18:30:39.846Z,101881.06
2022-10-17T18:41:09.132Z,101887.75
2022-10-17T18:51:30.523Z,101906.78
2022-10-17T19:01:52.062Z,101908.66
2022-10-17T19:12:13.496Z,101930.41
2022-10-17T19:22:34.857Z,101943.94
2022-10-17T19:32:56.231Z,101949.88
2022-10-17T19:43:18.195Z,101949.38
2022-10-17T19:53:39.621Z,101970.84
2022-10-17T20:04:01.285Z,101987.69
2022-10-17T20:14:22.636Z,101993.69
2022-10-17T20:24:44.106Z,102016.31
2022-10-17T20:35:07.312Z,102034.47
2022-10-17T20:45:43.671Z,102027.72
2022-10-17T20:56:16.096Z,102051.84
2022-10-17T21:06:37.505Z,102058.97
2022-10-17T21:17:04.514Z,102063.69
2022-10-17T21:27:26.606Z,102066.69
2022-10-17T21:37:48.032Z,102069.97
2022-10-17T21:48:13.303Z,102083.69
2022-10-17T21:58:35.326Z,102073.19
2022-10-17T22:08:57.050Z,102081.94
2022-10-17T22:19:20.078Z,102071.63
2022-10-17T22:29:41.450Z,102079.75
2022-10-17T22:40:03.173Z,102090.06
2022-10-17T22:50:24.553Z,102092.38
2022-10-17T23:00:46.238Z,102090.84
2022-10-17T23:11:07.957Z,102083.97
2022-10-17T23:21:29.311Z,102091.59
2022-10-17T23:31:53.850Z,102098.03
2022-10-17T23:42:15.275Z,102096.69
2022-10-17T23:52:36.649Z,102101.63
